• Join FlightAware (Why Join?)
  • Login
  • US Flag 
08:48PM EST


 

Airport Tracker/Info


-or-


 

Live Flight TrackerFlight Track Log ✈ ASQ5750 ✈ 22-Apr-2013 ✈ KCVG - KORD

Flight Track Log - Related Links

Times and Time Zones

All times are in EDT time to prevent confusion due to time zone crossing. See the ASQ5750 flight status page for this flight to view local times or setup timezone preferences in your user account.

Time Position Orientation Groundspeed Altitude Reporting Facility
EDT Latitude Longitude Course Direction KTS MPH feet Rate Location/Type
10:54AM 39.0500 -84.6833 351° North 162 186 1,500  Level Cincinnati TRACON
10:55AM 39.0500 -84.7833 270° West 262 302 4,100 2,520 Climbing Cincinnati TRACON
10:56AM 39.1167 -84.8333 330° Northwest 274 315 7,400 2,520 Climbing Cincinnati TRACON
10:57AM 38.9133 -84.7919 313° West  Level FlightAware Approximate
10:58AM 38.9605 -84.8580 313° West  Level FlightAware Approximate
10:58AM 39.2417 -84.8889 341° North 295 339 11,200  Level Indianapolis Center
10:59AM 39.0256 -84.8851 351° North  Level FlightAware Approximate
10:59AM 39.3339 -84.9253 343° North 338 389 13,300  Level Indianapolis Center
11:00AM 39.4297 -84.9622 343° North 353 406 15,300 1,980 Climbing Indianapolis Center
11:01AM 39.5281 -85.0008 343° North 363 418 17,400 1,560 Climbing Indianapolis Center
11:02AM 39.6283 -85.0383 344° North 369 425 18,600 1,260 Climbing Indianapolis Center
11:03AM 39.7353 -85.0508 355° North 378 435 20,000 1,260 Climbing Indianapolis Center
11:04AM 39.8436 -85.0617 356° North 385 443 21,300 960 Climbing Indianapolis Center
11:05AM 39.9550 -85.0739 355° North 393 452 22,000 300 Climbing Indianapolis Center
11:06AM 40.0619 -85.1289 339° North 429 494 22,000  Level Indianapolis Center
11:07AM 40.1611 -85.2564 316° Northwest 429 494 22,000  Level Indianapolis Center
11:08AM 40.2472 -85.3642 316° Northwest 425 489 22,000  Level Indianapolis Center
11:09AM 40.3011 -85.4300 317° Northwest 421 484 22,000  Level Chicago Center
11:10AM 40.3842 -85.5369 316° Northwest 420 483 22,000  Level Chicago Center
11:11AM 40.4656 -85.6431 315° West 416 479 22,000  Level Chicago Center
11:12AM 40.5383 -85.7614 309° West 415 478 22,000  Level Chicago Center
11:13AM 40.6097 -85.8836 308° West 419 482 22,000  Level Chicago Center
11:14AM 40.6803 -86.0039 308° West 416 479 22,000  Level Chicago Center
11:15AM 40.7531 -86.1264 308° West 422 486 22,000  Level Chicago Center
11:16AM 40.8258 -86.2528 307° West 431 496 22,000  Level Chicago Center
11:17AM 40.8983 -86.3775 308° West 428 493 22,000  Level Chicago Center
11:18AM 40.9864 -86.5311 307° West 435 501 22,000 -540 Level Chicago Center
11:19AM 41.0586 -86.6553 308° West 427 491 20,900 -1,620 Descending Chicago Center
11:20AM 41.1231 -86.7678 307° West 416 479 18,700 -2,040 Descending Chicago Center
11:21AM 41.1922 -86.8892 307° West 414 476 16,800 -2,280 Descending Chicago Center
11:22AM 41.2728 -87.0292 307° West 403 464 14,100 -2,520 Descending Chicago Center
11:23AM 41.3367 -87.1436 307° West 391 450 11,700 -1,440 Descending Chicago Center
11:24AM 41.4167 -87.2500 315° West 371 427 11,000 -360 Descending Chicago TRACON
11:25AM 41.4833 -87.3333 317° Northwest 374 430 11,000  Level Chicago TRACON
11:26AM 41.5667 -87.4333 318° Northwest 381 438 11,000 -540 Level Chicago TRACON
11:27AM 41.6500 -87.5167 323° Northwest 375 432 10,000 -480 Descending Chicago TRACON
11:28AM 41.7333 -87.6000 323° Northwest 353 406 10,000 -420 Level Chicago TRACON
11:29AM 41.7833 -87.6667 315° West 288 331 9,200 -1,260 Descending Chicago TRACON
11:30AM 41.8500 -87.7500 317° Northwest 284 327 7,700 -1,140 Descending Chicago TRACON
11:31AM 41.8833 -87.8333 298° West 276 318 7,000 -360 Descending Chicago TRACON
11:32AM 41.8833 -87.9333 270° West 285 328 7,000 -60 Level Chicago TRACON
11:33AM 41.8833 -88.0333 270° West 255 293 6,900 -900 Descending Chicago TRACON
11:34AM 41.8833 -88.1167 270° West 226 260 5,300 -1,500 Descending Chicago TRACON
11:34AM 41.8842 -88.1447 272° West 240 276 4,900 -1,200 Descending Chicago Center